Craven, South Dakota
Current Conditions -  °F | °C
As of 3:53 PM on Thursday 27 Nov 2014 (Local Time) from KABR Reporting Station
Overcast Overcast  
Wind Chill:   Ceiling: 3400
Heat Index: 13°   Visibility: 10mi
Dew Point:   Wind: 10mph
Humidity: 67%   Direction: 130°SE
Pressure: 30.2"   Gusts: NA
Location:  45.4188°N, 99.0275°W
Report Text: KABR 272153Z AUTO 13009KT 10SM OVC034 M11/M16 A3020 RMK AO2 SNE04 SLP261 P0000 T11061156 $
Loading
Personal Weather Stations






























Interactive Weather Map New forecast layout! Learn more

10-Day Weather Forecast

Advertisements
Track Severe Weather on mobile